Nearby METAR Reports

 

KCOS - Colorado Springs, Colorado, USA
Distance from station: S 6mi, 9km
Updated: 05/20/2019 4:54pm
Rain, Mist, Overcast
Rain, Mist, Overcast
 Wind from N
Wind: N 17 mph , 28 km/h
Temperature: 39°F , 4°C
Wind Chill: 30°F , -1°C
Dew Point: 36°F , 2°C
Humidity: 87%
Barometer: 29.73 inHg , 1006.8 hPa
Summary: Rain, Mist
Clouds: Overcast
Visibility: 3 miles , 5 km
Cloud details: Few Clouds 800 ft
Partly cloudy 1600 ft
Overcast 2100 ft
2019/05/20 22:54 KCOS 202254Z 35015KT 3SM RA BR FEW008 SCT016 OVC021 04/02 A2973 RMK AO2 LTG DSNT SE SLP053 CB DSNT ALQDS MOV N P0020 T00440022
KAFF - Usaf Academy/Cos, Colorado, USA
Distance from station: NW 7mi, 12km
Updated: 05/20/2019 4:58pm
Light rain, Snow, Mist, Overcast
Light rain, Snow, Mist, Overcast
 Wind from N
Wind: N 14 mph , 22 km/h
Temperature: 36°F , 2°C
Wind Chill: 27°F , -3°C
Dew Point: 36°F , 2°C
Humidity: 100%
Barometer: 29.73 inHg , 1006.8 hPa
Summary: Light rain, Snow, Mist
Clouds: Overcast
Visibility: 1 1/2 miles , 2.4 km
Cloud details: Mostly cloudy 600 ft
Overcast 1100 ft
2019/05/20 22:58 KAFF 202258Z 35012KT 1 1/2SM -RASN BR BKN006 OVC011 02/02 A2973 RMK AO2A RAB07SNB52 SLP064 P0005 T00220021
 
KFLY - Co Spngs Meadow, Colorado, USA
Distance from station: ENE 8mi, 13km
Updated: 05/20/2019 5:35pm
Light snow, Overcast
Light snow, Overcast
 Wind from N
Wind: N 13 mph , 20 km/h, Gust: 25 mph , 41 km/h
Temperature: 34°F , 1°C
Wind Chill: 25°F , -4°C
Dew Point: 34°F , 1°C
Humidity: 100%
Barometer: 29.73 inHg , 1006.8 hPa
Summary: Light Snow
Clouds: Overcast
Visibility: 10 miles , 16 km
Cloud details: Overcast 1400 ft
2019/05/20 23:35 KFLY 202335Z AUTO 35011G22KT 10SM -SN OVC014 01/01 A2973 RMK AO2 T00130005
KFCS - Fort Carson, Colorado, USA
Distance from station: S 17mi, 27km
Updated: 05/20/2019 5:28pm
Rain, Overcast
Rain, Overcast
 Wind from N
Wind: N 23 mph , 37 km/h, Gust: 29 mph , 46 km/h
Temperature: 39°F , 4°C
Wind Chill: 28°F , -2°C
Dew Point: 37°F , 3°C
Humidity: 93%
Barometer: 29.69 inHg , 1005.4 hPa
Summary: Rain
Clouds: Overcast
Visibility: 10 miles , 16 km
Cloud details: Partly cloudy 1900 ft
Overcast 3000 ft
2019/05/20 23:28 KFCS 202328Z AUTO 36020G25KT 10SM RA SCT019 OVC030 04/03 A2969 RMK AO2 SLP062 $
 
KMNH - Monument/Elbert, Colorado, USA
Distance from station: N 22mi, 35km
Updated: 05/20/2019 5:29pm
Light snow, Overcast
Light snow, Overcast
 Wind from NNW
Wind: NNW 13 mph , 20 km/h
Temperature: 32°F , 0°C
Wind Chill: 22°F , -6°C
Dew Point: 32°F , 0°C
Humidity: 100%
Barometer: 29.78 inHg , 1008.5 hPa
Summary: Light Snow
Clouds: Overcast
Visibility: 2 miles , 3 km
Cloud details: Overcast 300 ft
2019/05/20 23:29 KMNH 202329Z AUTO 34011KT 2SM -SN OVC003 00/00 A2978 RMK AO2
K1V6 - Canon City, Colorado, USA
Distance from station: SSW 39mi, 62km
Updated: 05/20/2019 5:30pm
Light rain, Overcast
Light rain, Overcast
 Wind from NNE
Wind: NNE 14 mph , 22 km/h, Gust: 20 mph , 31 km/h
Temperature: 48°F , 9°C
Wind Chill: 42°F , 6°C
Dew Point: 45°F , 7°C
Humidity: 87%
Barometer: 29.66 inHg , 1004.4 hPa
Summary: Light rain
Clouds: Overcast
Visibility: 7 miles , 11 km
Cloud details: Mostly cloudy 2900 ft
Mostly cloudy 3500 ft
Overcast 4300 ft
2019/05/20 23:30 K1V6 202330Z AUTO 03012G17KT 7SM -RA BKN029 BKN035 OVC043 09/07 A2966 RMK AO2 P0004 LTG DSNT E
 
KPUB - Pueblo, Colorado, USA
Distance from station: SSE 44mi, 71km
Updated: 05/20/2019 5:29pm
Thunderstorm, Overcast
Thunderstorm, Overcast
 Wind from ESE
Wind: ESE 17 mph , 28 km/h
Temperature: 54°F , 12°C
Dew Point: 50°F , 10°C
Humidity: 88%
Barometer: 29.62 inHg , 1003 hPa
Summary: Thunderstorm
Clouds: Overcast
Visibility: 10 miles , 16 km
Cloud details: Mostly cloudy 2100 ft
Overcast 3000 ft
2019/05/20 23:29 KPUB 202329Z 11015KT 10SM TS BKN021 OVC030 12/10 A2962 RMK AO2 LTG DSNT S-W RAE28 TSB23 P0000 T01220100
KAPA - Denver/Arapahoe, Colorado, USA
Distance from station: N 47mi, 75km
Updated: 05/20/2019 5:28pm
Rain, Mist, Overcast
Rain, Mist, Overcast
 Wind from NE
Wind: NE 7 mph , 11 km/h
Temperature: 37°F , 3°C
Wind Chill: 32°F , 0°C
Dew Point: 36°F , 2°C
Humidity: 93%
Barometer: 29.78 inHg , 1008.5 hPa
Summary: Rain, Mist
Clouds: Overcast
Visibility: 1 3/4 miles , 2.8 km
Cloud details: Mostly cloudy 800 ft
Overcast 1600 ft
2019/05/20 23:28 KAPA 202328Z 05006KT 1 3/4SM RA BR BKN008 OVC016 03/02 A2978 RMK AO2 RAB17 P0002 T00330017